sensor_id;sensor_type;location;lat;lon;timestamp;P1;durP1;ratioP1;P2;durP2;ratioP2
6434;SDS011;3250;42.694;23.278;2023-09-18T00:00:22;13.13;;;7.75;;
6434;SDS011;3250;42.694;23.278;2023-09-18T00:02:48;15.20;;;9.97;;
6434;SDS011;3250;42.694;23.278;2023-09-18T00:05:13;14.65;;;8.98;;
6434;SDS011;3250;42.694;23.278;2023-09-18T00:07:41;15.68;;;9.88;;
6434;SDS011;3250;42.694;23.278;2023-09-18T00:10:07;12.45;;;8.73;;
6434;SDS011;3250;42.694;23.278;2023-09-18T00:12:34;11.57;;;7.55;;
6434;SDS011;3250;42.694;23.278;2023-09-18T00:14:59;14.30;;;10.50;;
6434;SDS011;3250;42.694;23.278;2023-09-18T00:17:24;11.77;;;8.57;;
6434;SDS011;3250;42.694;23.278;2023-09-18T00:19:50;14.17;;;8.93;;
6434;SDS011;3250;42.694;23.278;2023-09-18T00:22:16;12.13;;;8.52;;
6434;SDS011;3250;42.694;23.278;2023-09-18T00:24:42;11.38;;;8.73;;
6434;SDS011;3250;42.694;23.278;2023-09-18T00:27:07;13.40;;;8.25;;
6434;SDS011;3250;42.694;23.278;2023-09-18T00:29:33;14.98;;;8.20;;
6434;SDS011;3250;42.694;23.278;2023-09-18T00:31:58;14.93;;;10.35;;
6434;SDS011;3250;42.694;23.278;2023-09-18T00:34:23;22.30;;;12.27;;
6434;SDS011;3250;42.694;23.278;2023-09-18T00:36:49;14.68;;;10.98;;
6434;SDS011;3250;42.694;23.278;2023-09-18T00:39:14;21.50;;;10.45;;
6434;SDS011;3250;42.694;23.278;2023-09-18T00:41:40;14.48;;;9.95;;
6434;SDS011;3250;42.694;23.278;2023-09-18T00:44:06;15.98;;;11.27;;
6434;SDS011;3250;42.694;23.278;2023-09-18T00:46:31;18.52;;;11.77;;
6434;SDS011;3250;42.694;23.278;2023-09-18T00:48:58;17.15;;;11.75;;
6434;SDS011;3250;42.694;23.278;2023-09-18T00:51:24;16.38;;;11.35;;
6434;SDS011;3250;42.694;23.278;2023-09-18T00:53:49;14.35;;;11.25;;
6434;SDS011;3250;42.694;23.278;2023-09-18T00:56:15;17.10;;;13.03;;
6434;SDS011;3250;42.694;23.278;2023-09-18T00:58:41;20.55;;;13.77;;
6434;SDS011;3250;42.694;23.278;2023-09-18T01:01:06;16.00;;;12.63;;
6434;SDS011;3250;42.694;23.278;2023-09-18T01:03:33;14.82;;;10.80;;
6434;SDS011;3250;42.694;23.278;2023-09-18T01:06:00;15.70;;;10.60;;
6434;SDS011;3250;42.694;23.278;2023-09-18T01:08:26;13.57;;;10.32;;
6434;SDS011;3250;42.694;23.278;2023-09-18T01:14:12;19.73;;;12.43;;
6434;SDS011;3250;42.694;23.278;2023-09-18T01:16:20;18.90;;;11.43;;
6434;SDS011;3250;42.694;23.278;2023-09-18T01:18:50;30.23;;;14.65;;
6434;SDS011;3250;42.694;23.278;2023-09-18T01:21:18;18.15;;;12.93;;
6434;SDS011;3250;42.694;23.278;2023-09-18T01:23:44;20.20;;;14.52;;
6434;SDS011;3250;42.694;23.278;2023-09-18T01:26:10;21.10;;;11.90;;
6434;SDS011;3250;42.694;23.278;2023-09-18T01:28:35;19.55;;;11.40;;
6434;SDS011;3250;42.694;23.278;2023-09-18T01:31:00;17.75;;;13.05;;
6434;SDS011;3250;42.694;23.278;2023-09-18T01:33:26;17.15;;;12.38;;
6434;SDS011;3250;42.694;23.278;2023-09-18T01:35:53;18.60;;;12.50;;
6434;SDS011;3250;42.694;23.278;2023-09-18T01:38:21;22.60;;;13.30;;
6434;SDS011;3250;42.694;23.278;2023-09-18T01:40:48;21.13;;;11.88;;
6434;SDS011;3250;42.694;23.278;2023-09-18T01:43:13;16.73;;;10.40;;
6434;SDS011;3250;42.694;23.278;2023-09-18T01:45:39;17.25;;;12.00;;
6434;SDS011;3250;42.694;23.278;2023-09-18T01:48:05;17.85;;;11.88;;
6434;SDS011;3250;42.694;23.278;2023-09-18T01:50:31;18.60;;;11.27;;
6434;SDS011;3250;42.694;23.278;2023-09-18T01:52:58;20.88;;;11.82;;
6434;SDS011;3250;42.694;23.278;2023-09-18T01:55:23;16.50;;;11.27;;
6434;SDS011;3250;42.694;23.278;2023-09-18T01:57:49;14.70;;;11.10;;
6434;SDS011;3250;42.694;23.278;2023-09-18T02:00:14;17.25;;;11.35;;
6434;SDS011;3250;42.694;23.278;2023-09-18T02:02:40;12.43;;;9.23;;
6434;SDS011;3250;42.694;23.278;2023-09-18T02:05:06;18.73;;;11.93;;
6434;SDS011;3250;42.694;23.278;2023-09-18T02:07:31;15.57;;;11.63;;
6434;SDS011;3250;42.694;23.278;2023-09-18T02:09:57;15.45;;;11.88;;
6434;SDS011;3250;42.694;23.278;2023-09-18T02:12:22;15.95;;;11.00;;
6434;SDS011;3250;42.694;23.278;2023-09-18T02:14:48;17.63;;;11.35;;
6434;SDS011;3250;42.694;23.278;2023-09-18T02:17:13;15.93;;;10.85;;
6434;SDS011;3250;42.694;23.278;2023-09-18T02:19:38;13.75;;;11.50;;
6434;SDS011;3250;42.694;23.278;2023-09-18T02:22:04;14.38;;;11.18;;
6434;SDS011;3250;42.694;23.278;2023-09-18T02:24:30;16.75;;;12.13;;
6434;SDS011;3250;42.694;23.278;2023-09-18T02:26:55;17.80;;;11.38;;
6434;SDS011;3250;42.694;23.278;2023-09-18T02:29:20;18.55;;;11.73;;
6434;SDS011;3250;42.694;23.278;2023-09-18T02:31:46;15.32;;;12.10;;
6434;SDS011;3250;42.694;23.278;2023-09-18T02:34:11;16.00;;;11.80;;
6434;SDS011;3250;42.694;23.278;2023-09-18T02:36:36;19.08;;;11.02;;
6434;SDS011;3250;42.694;23.278;2023-09-18T02:39:02;18.02;;;11.25;;
6434;SDS011;3250;42.694;23.278;2023-09-18T02:41:28;17.23;;;11.23;;
6434;SDS011;3250;42.694;23.278;2023-09-18T02:43:53;17.40;;;10.50;;
6434;SDS011;3250;42.694;23.278;2023-09-18T02:46:18;17.10;;;12.40;;
6434;SDS011;3250;42.694;23.278;2023-09-18T02:48:44;16.80;;;10.68;;
6434;SDS011;3250;42.694;23.278;2023-09-18T02:51:09;16.38;;;10.98;;
6434;SDS011;3250;42.694;23.278;2023-09-18T02:53:35;15.85;;;11.00;;
6434;SDS011;3250;42.694;23.278;2023-09-18T02:56:00;18.95;;;10.85;;
6434;SDS011;3250;42.694;23.278;2023-09-18T02:58:26;17.83;;;11.80;;
6434;SDS011;3250;42.694;23.278;2023-09-18T03:00:54;19.38;;;11.60;;
6434;SDS011;3250;42.694;23.278;2023-09-18T03:03:20;16.02;;;11.57;;
6434;SDS011;3250;42.694;23.278;2023-09-18T03:05:46;14.05;;;10.10;;
6434;SDS011;3250;42.694;23.278;2023-09-18T03:08:12;15.77;;;10.80;;
6434;SDS011;3250;42.694;23.278;2023-09-18T03:10:39;15.23;;;11.25;;
6434;SDS011;3250;42.694;23.278;2023-09-18T03:13:06;15.65;;;10.48;;
6434;SDS011;3250;42.694;23.278;2023-09-18T03:15:33;15.00;;;11.25;;
6434;SDS011;3250;42.694;23.278;2023-09-18T03:17:59;20.05;;;11.05;;
6434;SDS011;3250;42.694;23.278;2023-09-18T03:20:26;15.23;;;11.63;;
6434;SDS011;3250;42.694;23.278;2023-09-18T03:22:53;14.88;;;10.70;;
6434;SDS011;3250;42.694;23.278;2023-09-18T03:25:20;18.65;;;11.88;;
6434;SDS011;3250;42.694;23.278;2023-09-18T03:27:47;15.07;;;10.18;;
6434;SDS011;3250;42.694;23.278;2023-09-18T03:30:12;16.85;;;11.48;;
6434;SDS011;3250;42.694;23.278;2023-09-18T03:32:41;14.93;;;10.23;;
6434;SDS011;3250;42.694;23.278;2023-09-18T03:35:07;14.10;;;10.37;;
6434;SDS011;3250;42.694;23.278;2023-09-18T03:37:34;18.70;;;11.40;;
6434;SDS011;3250;42.694;23.278;2023-09-18T03:40:00;17.77;;;10.70;;
6434;SDS011;3250;42.694;23.278;2023-09-18T03:42:26;15.80;;;10.60;;
6434;SDS011;3250;42.694;23.278;2023-09-18T03:44:52;15.63;;;11.10;;
6434;SDS011;3250;42.694;23.278;2023-09-18T03:47:17;15.93;;;10.13;;
6434;SDS011;3250;42.694;23.278;2023-09-18T03:49:43;15.27;;;10.50;;
6434;SDS011;3250;42.694;23.278;2023-09-18T03:52:08;18.65;;;10.88;;
6434;SDS011;3250;42.694;23.278;2023-09-18T03:54:33;18.30;;;11.43;;
6434;SDS011;3250;42.694;23.278;2023-09-18T03:56:59;15.80;;;12.38;;
6434;SDS011;3250;42.694;23.278;2023-09-18T03:59:24;15.20;;;11.40;;
6434;SDS011;3250;42.694;23.278;2023-09-18T04:01:50;18.47;;;11.70;;
6434;SDS011;3250;42.694;23.278;2023-09-18T04:04:15;15.77;;;11.67;;
6434;SDS011;3250;42.694;23.278;2023-09-18T04:06:41;17.60;;;11.63;;
6434;SDS011;3250;42.694;23.278;2023-09-18T04:09:08;21.58;;;12.68;;
6434;SDS011;3250;42.694;23.278;2023-09-18T04:11:34;16.70;;;12.93;;
6434;SDS011;3250;42.694;23.278;2023-09-18T04:14:00;16.30;;;12.35;;
6434;SDS011;3250;42.694;23.278;2023-09-18T04:16:26;20.25;;;12.23;;
6434;SDS011;3250;42.694;23.278;2023-09-18T04:19:02;18.13;;;11.27;;
6434;SDS011;3250;42.694;23.278;2023-09-18T04:21:28;17.90;;;13.23;;
6434;SDS011;3250;42.694;23.278;2023-09-18T04:23:54;24.95;;;12.88;;
6434;SDS011;3250;42.694;23.278;2023-09-18T04:26:25;17.00;;;11.07;;
6434;SDS011;3250;42.694;23.278;2023-09-18T04:28:54;18.08;;;13.40;;
6434;SDS011;3250;42.694;23.278;2023-09-18T04:31:20;21.05;;;12.52;;
6434;SDS011;3250;42.694;23.278;2023-09-18T04:33:46;21.08;;;12.95;;
6434;SDS011;3250;42.694;23.278;2023-09-18T04:36:11;17.05;;;12.27;;
6434;SDS011;3250;42.694;23.278;2023-09-18T04:38:37;18.20;;;12.93;;
6434;SDS011;3250;42.694;23.278;2023-09-18T04:41:02;24.83;;;13.50;;
6434;SDS011;3250;42.694;23.278;2023-09-18T04:43:28;21.20;;;13.23;;
6434;SDS011;3250;42.694;23.278;2023-09-18T04:45:56;26.20;;;14.70;;
6434;SDS011;3250;42.694;23.278;2023-09-18T04:48:21;23.73;;;13.93;;
6434;SDS011;3250;42.694;23.278;2023-09-18T04:50:47;19.08;;;12.82;;
6434;SDS011;3250;42.694;23.278;2023-09-18T04:53:13;22.77;;;12.27;;
6434;SDS011;3250;42.694;23.278;2023-09-18T04:55:39;22.52;;;13.85;;
6434;SDS011;3250;42.694;23.278;2023-09-18T04:58:04;19.98;;;12.18;;
6434;SDS011;3250;42.694;23.278;2023-09-18T05:00:30;27.35;;;13.10;;
6434;SDS011;3250;42.694;23.278;2023-09-18T05:02:57;21.10;;;12.38;;
6434;SDS011;3250;42.694;23.278;2023-09-18T05:05:26;18.45;;;11.80;;
6434;SDS011;3250;42.694;23.278;2023-09-18T05:07:51;28.88;;;13.98;;
6434;SDS011;3250;42.694;23.278;2023-09-18T05:10:18;21.38;;;13.68;;
6434;SDS011;3250;42.694;23.278;2023-09-18T05:12:44;17.98;;;11.80;;
6434;SDS011;3250;42.694;23.278;2023-09-18T05:15:10;18.83;;;11.85;;
6434;SDS011;3250;42.694;23.278;2023-09-18T05:17:44;18.42;;;11.75;;
6434;SDS011;3250;42.694;23.278;2023-09-18T05:20:17;22.00;;;12.30;;
6434;SDS011;3250;42.694;23.278;2023-09-18T05:22:43;18.33;;;12.00;;
6434;SDS011;3250;42.694;23.278;2023-09-18T05:25:09;19.70;;;10.73;;
6434;SDS011;3250;42.694;23.278;2023-09-18T05:27:36;16.42;;;11.75;;
6434;SDS011;3250;42.694;23.278;2023-09-18T05:30:10;16.88;;;11.52;;
6434;SDS011;3250;42.694;23.278;2023-09-18T05:32:40;17.38;;;11.57;;
6434;SDS011;3250;42.694;23.278;2023-09-18T05:35:06;19.27;;;12.05;;
6434;SDS011;3250;42.694;23.278;2023-09-18T05:37:35;18.35;;;12.05;;
6434;SDS011;3250;42.694;23.278;2023-09-18T05:40:01;18.52;;;12.27;;
6434;SDS011;3250;42.694;23.278;2023-09-18T05:42:29;21.45;;;13.38;;
6434;SDS011;3250;42.694;23.278;2023-09-18T05:44:54;16.92;;;11.38;;
6434;SDS011;3250;42.694;23.278;2023-09-18T05:47:21;20.00;;;12.07;;
6434;SDS011;3250;42.694;23.278;2023-09-18T05:49:47;20.52;;;11.60;;
6434;SDS011;3250;42.694;23.278;2023-09-18T05:52:12;20.05;;;12.55;;
6434;SDS011;3250;42.694;23.278;2023-09-18T05:54:37;17.33;;;12.07;;
6434;SDS011;3250;42.694;23.278;2023-09-18T05:57:03;16.95;;;10.95;;
6434;SDS011;3250;42.694;23.278;2023-09-18T05:59:28;16.80;;;12.20;;
6434;SDS011;3250;42.694;23.278;2023-09-18T06:01:54;19.35;;;11.43;;
6434;SDS011;3250;42.694;23.278;2023-09-18T06:04:19;18.00;;;11.43;;
6434;SDS011;3250;42.694;23.278;2023-09-18T06:06:44;20.25;;;12.95;;
6434;SDS011;3250;42.694;23.278;2023-09-18T06:09:11;19.58;;;12.27;;
6434;SDS011;3250;42.694;23.278;2023-09-18T06:11:36;15.13;;;11.95;;
6434;SDS011;3250;42.694;23.278;2023-09-18T06:14:02;18.35;;;12.55;;
6434;SDS011;3250;42.694;23.278;2023-09-18T06:16:27;23.05;;;13.68;;
6434;SDS011;3250;42.694;23.278;2023-09-18T06:18:53;18.63;;;13.15;;
6434;SDS011;3250;42.694;23.278;2023-09-18T06:21:21;24.20;;;13.25;;
6434;SDS011;3250;42.694;23.278;2023-09-18T06:23:46;20.48;;;12.20;;
6434;SDS011;3250;42.694;23.278;2023-09-18T06:26:11;21.30;;;13.32;;
6434;SDS011;3250;42.694;23.278;2023-09-18T06:28:37;21.63;;;12.40;;
6434;SDS011;3250;42.694;23.278;2023-09-18T06:31:03;20.75;;;12.77;;
6434;SDS011;3250;42.694;23.278;2023-09-18T06:33:29;18.83;;;12.50;;
6434;SDS011;3250;42.694;23.278;2023-09-18T06:35:55;26.60;;;13.07;;
6434;SDS011;3250;42.694;23.278;2023-09-18T06:38:20;20.20;;;12.73;;
6434;SDS011;3250;42.694;23.278;2023-09-18T06:40:46;19.83;;;12.65;;
6434;SDS011;3250;42.694;23.278;2023-09-18T06:43:11;25.10;;;12.80;;
6434;SDS011;3250;42.694;23.278;2023-09-18T06:45:37;18.40;;;13.15;;
6434;SDS011;3250;42.694;23.278;2023-09-18T06:48:03;20.13;;;12.32;;
6434;SDS011;3250;42.694;23.278;2023-09-18T06:50:29;17.27;;;12.23;;
6434;SDS011;3250;42.694;23.278;2023-09-18T06:52:55;16.60;;;11.32;;
6434;SDS011;3250;42.694;23.278;2023-09-18T06:55:21;21.27;;;12.20;;
6434;SDS011;3250;42.694;23.278;2023-09-18T06:57:46;21.15;;;11.10;;
6434;SDS011;3250;42.694;23.278;2023-09-18T07:00:13;17.80;;;11.90;;
6434;SDS011;3250;42.694;23.278;2023-09-18T07:02:45;15.95;;;11.07;;
6434;SDS011;3250;42.694;23.278;2023-09-18T07:05:11;14.88;;;10.73;;
6434;SDS011;3250;42.694;23.278;2023-09-18T07:07:36;20.85;;;10.68;;
6434;SDS011;3250;42.694;23.278;2023-09-18T07:10:02;15.00;;;8.95;;
6434;SDS011;3250;42.694;23.278;2023-09-18T07:12:27;16.83;;;10.18;;
6434;SDS011;3250;42.694;23.278;2023-09-18T07:14:53;19.13;;;10.65;;
6434;SDS011;3250;42.694;23.278;2023-09-18T07:17:18;16.23;;;10.45;;
6434;SDS011;3250;42.694;23.278;2023-09-18T07:19:44;16.15;;;10.23;;
6434;SDS011;3250;42.694;23.278;2023-09-18T07:22:09;16.02;;;10.30;;
6434;SDS011;3250;42.694;23.278;2023-09-18T07:24:36;16.75;;;10.15;;
6434;SDS011;3250;42.694;23.278;2023-09-18T07:27:05;14.38;;;9.95;;
6434;SDS011;3250;42.694;23.278;2023-09-18T07:29:31;16.17;;;10.07;;
6434;SDS011;3250;42.694;23.278;2023-09-18T07:31:56;17.35;;;10.02;;
6434;SDS011;3250;42.694;23.278;2023-09-18T07:34:22;17.70;;;9.77;;
6434;SDS011;3250;42.694;23.278;2023-09-18T07:36:47;12.73;;;9.88;;
6434;SDS011;3250;42.694;23.278;2023-09-18T07:39:12;17.58;;;9.60;;
6434;SDS011;3250;42.694;23.278;2023-09-18T07:41:38;13.07;;;9.98;;
6434;SDS011;3250;42.694;23.278;2023-09-18T07:44:04;14.63;;;9.25;;
6434;SDS011;3250;42.694;23.278;2023-09-18T07:46:30;18.63;;;10.07;;
6434;SDS011;3250;42.694;23.278;2023-09-18T07:48:55;12.90;;;8.88;;
6434;SDS011;3250;42.694;23.278;2023-09-18T07:51:21;16.95;;;9.38;;
6434;SDS011;3250;42.694;23.278;2023-09-18T07:53:46;12.90;;;8.63;;
6434;SDS011;3250;42.694;23.278;2023-09-18T07:56:12;14.63;;;9.50;;
6434;SDS011;3250;42.694;23.278;2023-09-18T07:58:37;14.35;;;9.70;;
6434;SDS011;3250;42.694;23.278;2023-09-18T08:01:03;15.70;;;10.10;;
6434;SDS011;3250;42.694;23.278;2023-09-18T08:03:30;13.98;;;10.48;;
6434;SDS011;3250;42.694;23.278;2023-09-18T08:05:56;13.75;;;9.25;;
6434;SDS011;3250;42.694;23.278;2023-09-18T08:08:22;12.57;;;9.20;;
6434;SDS011;3250;42.694;23.278;2023-09-18T08:10:49;15.43;;;9.82;;
6434;SDS011;3250;42.694;23.278;2023-09-18T08:13:15;12.60;;;9.05;;
6434;SDS011;3250;42.694;23.278;2023-09-18T08:15:40;12.38;;;8.63;;
6434;SDS011;3250;42.694;23.278;2023-09-18T08:18:06;13.18;;;8.57;;
6434;SDS011;3250;42.694;23.278;2023-09-18T08:20:31;15.95;;;7.30;;
6434;SDS011;3250;42.694;23.278;2023-09-18T08:22:58;12.40;;;9.20;;
6434;SDS011;3250;42.694;23.278;2023-09-18T08:25:26;12.18;;;9.45;;
6434;SDS011;3250;42.694;23.278;2023-09-18T08:27:52;13.02;;;8.90;;
6434;SDS011;3250;42.694;23.278;2023-09-18T08:30:17;14.50;;;9.45;;
6434;SDS011;3250;42.694;23.278;2023-09-18T08:32:46;16.52;;;8.82;;
6434;SDS011;3250;42.694;23.278;2023-09-18T08:35:12;12.13;;;8.45;;
6434;SDS011;3250;42.694;23.278;2023-09-18T08:37:40;13.02;;;8.48;;
6434;SDS011;3250;42.694;23.278;2023-09-18T08:40:07;14.50;;;8.48;;
6434;SDS011;3250;42.694;23.278;2023-09-18T08:42:35;12.43;;;9.00;;
6434;SDS011;3250;42.694;23.278;2023-09-18T08:45:05;11.95;;;8.80;;
6434;SDS011;3250;42.694;23.278;2023-09-18T08:47:34;15.10;;;8.38;;
6434;SDS011;3250;42.694;23.278;2023-09-18T08:50:00;10.23;;;7.32;;
6434;SDS011;3250;42.694;23.278;2023-09-18T08:52:26;11.20;;;7.72;;
6434;SDS011;3250;42.694;23.278;2023-09-18T08:54:53;19.05;;;8.30;;
6434;SDS011;3250;42.694;23.278;2023-09-18T08:57:21;11.38;;;7.57;;
6434;SDS011;3250;42.694;23.278;2023-09-18T08:59:48;13.15;;;8.30;;
6434;SDS011;3250;42.694;23.278;2023-09-18T09:02:15;14.60;;;8.07;;
6434;SDS011;3250;42.694;23.278;2023-09-18T09:04:41;10.00;;;7.80;;
6434;SDS011;3250;42.694;23.278;2023-09-18T09:07:07;12.55;;;8.30;;
6434;SDS011;3250;42.694;23.278;2023-09-18T09:09:32;13.27;;;8.38;;
6434;SDS011;3250;42.694;23.278;2023-09-18T09:11:58;14.98;;;8.13;;
6434;SDS011;3250;42.694;23.278;2023-09-18T09:14:24;10.50;;;7.78;;
6434;SDS011;3250;42.694;23.278;2023-09-18T09:16:55;10.80;;;6.93;;
6434;SDS011;3250;42.694;23.278;2023-09-18T09:19:29;11.20;;;7.47;;
6434;SDS011;3250;42.694;23.278;2023-09-18T09:21:56;10.70;;;7.53;;
6434;SDS011;3250;42.694;23.278;2023-09-18T09:24:42;9.48;;;7.13;;
6434;SDS011;3250;42.694;23.278;2023-09-18T09:27:08;12.32;;;7.60;;
6434;SDS011;3250;42.694;23.278;2023-09-18T09:29:39;11.75;;;7.18;;
6434;SDS011;3250;42.694;23.278;2023-09-18T09:32:14;8.65;;;6.80;;
6434;SDS011;3250;42.694;23.278;2023-09-18T09:34:42;11.10;;;6.82;;
6434;SDS011;3250;42.694;23.278;2023-09-18T09:37:08;10.95;;;6.50;;
6434;SDS011;3250;42.694;23.278;2023-09-18T09:39:45;9.45;;;7.07;;
6434;SDS011;3250;42.694;23.278;2023-09-18T09:42:14;10.02;;;7.30;;
6434;SDS011;3250;42.694;23.278;2023-09-18T09:44:46;8.38;;;5.93;;
6434;SDS011;3250;42.694;23.278;2023-09-18T09:47:12;9.70;;;6.18;;
6434;SDS011;3250;42.694;23.278;2023-09-18T09:49:46;9.23;;;6.18;;
6434;SDS011;3250;42.694;23.278;2023-09-18T09:52:18;8.60;;;5.80;;
6434;SDS011;3250;42.694;23.278;2023-09-18T09:54:47;11.68;;;7.25;;
6434;SDS011;3250;42.694;23.278;2023-09-18T09:57:12;8.95;;;6.90;;
6434;SDS011;3250;42.694;23.278;2023-09-18T09:59:38;11.10;;;7.07;;
6434;SDS011;3250;42.694;23.278;2023-09-18T10:02:05;11.43;;;6.18;;
6434;SDS011;3250;42.694;23.278;2023-09-18T10:04:34;13.38;;;7.28;;
6434;SDS011;3250;42.694;23.278;2023-09-18T10:07:08;10.65;;;6.35;;
6434;SDS011;3250;42.694;23.278;2023-09-18T10:09:35;9.65;;;6.53;;
6434;SDS011;3250;42.694;23.278;2023-09-18T10:12:05;8.50;;;6.45;;
6434;SDS011;3250;42.694;23.278;2023-09-18T10:14:36;9.23;;;6.47;;
6434;SDS011;3250;42.694;23.278;2023-09-18T10:17:11;9.18;;;5.97;;
6434;SDS011;3250;42.694;23.278;2023-09-18T10:24:54;8.23;;;5.57;;
6434;SDS011;3250;42.694;23.278;2023-09-18T10:27:25;11.45;;;6.15;;
6434;SDS011;3250;42.694;23.278;2023-09-18T10:29:51;7.60;;;5.20;;
6434;SDS011;3250;42.694;23.278;2023-09-18T10:32:19;7.88;;;4.80;;
6434;SDS011;3250;42.694;23.278;2023-09-18T10:34:47;10.80;;;5.32;;
6434;SDS011;3250;42.694;23.278;2023-09-18T10:37:13;8.25;;;5.65;;
6434;SDS011;3250;42.694;23.278;2023-09-18T10:39:40;8.15;;;4.97;;
6434;SDS011;3250;42.694;23.278;2023-09-18T10:42:07;9.45;;;5.78;;
6434;SDS011;3250;42.694;23.278;2023-09-18T10:44:34;6.60;;;5.30;;
6434;SDS011;3250;42.694;23.278;2023-09-18T10:47:00;6.70;;;5.50;;
6434;SDS011;3250;42.694;23.278;2023-09-18T10:49:28;7.60;;;4.88;;
6434;SDS011;3250;42.694;23.278;2023-09-18T10:51:54;6.45;;;5.15;;
6434;SDS011;3250;42.694;23.278;2023-09-18T10:54:21;9.40;;;5.20;;
6434;SDS011;3250;42.694;23.278;2023-09-18T10:56:48;11.73;;;5.65;;
6434;SDS011;3250;42.694;23.278;2023-09-18T10:59:14;10.05;;;5.35;;
6434;SDS011;3250;42.694;23.278;2023-09-18T11:01:41;6.40;;;4.65;;
6434;SDS011;3250;42.694;23.278;2023-09-18T11:04:07;6.30;;;4.38;;
6434;SDS011;3250;42.694;23.278;2023-09-18T11:09:25;8.20;;;4.95;;
6434;SDS011;3250;42.694;23.278;2023-09-18T11:11:57;5.75;;;4.40;;
6434;SDS011;3250;42.694;23.278;2023-09-18T11:14:42;6.55;;;4.55;;
6434;SDS011;3250;42.694;23.278;2023-09-18T11:17:39;6.60;;;3.92;;
6434;SDS011;3250;42.694;23.278;2023-09-18T11:20:18;13.43;;;3.67;;
6434;SDS011;3250;42.694;23.278;2023-09-18T11:22:49;5.30;;;4.20;;
6434;SDS011;3250;42.694;23.278;2023-09-18T11:27:59;7.88;;;3.90;;
6434;SDS011;3250;42.694;23.278;2023-09-18T11:30:27;9.77;;;4.15;;
6434;SDS011;3250;42.694;23.278;2023-09-18T11:32:54;8.50;;;4.45;;
6434;SDS011;3250;42.694;23.278;2023-09-18T11:35:20;7.75;;;4.05;;
6434;SDS011;3250;42.694;23.278;2023-09-18T11:37:46;4.93;;;3.80;;
6434;SDS011;3250;42.694;23.278;2023-09-18T11:40:32;5.90;;;4.10;;
6434;SDS011;3250;42.694;23.278;2023-09-18T11:43:22;8.43;;;4.57;;
6434;SDS011;3250;42.694;23.278;2023-09-18T11:45:50;5.60;;;4.13;;
6434;SDS011;3250;42.694;23.278;2023-09-18T11:48:18;8.38;;;4.45;;
6434;SDS011;3250;42.694;23.278;2023-09-18T11:50:44;6.95;;;4.03;;
6434;SDS011;3250;42.694;23.278;2023-09-18T11:53:11;5.50;;;3.97;;
6434;SDS011;3250;42.694;23.278;2023-09-18T11:55:40;4.32;;;3.92;;
6434;SDS011;3250;42.694;23.278;2023-09-18T11:58:07;8.88;;;3.88;;
6434;SDS011;3250;42.694;23.278;2023-09-18T12:00:34;4.85;;;4.07;;
6434;SDS011;3250;42.694;23.278;2023-09-18T12:03:22;7.93;;;3.72;;
6434;SDS011;3250;42.694;23.278;2023-09-18T12:05:54;4.05;;;3.30;;
6434;SDS011;3250;42.694;23.278;2023-09-18T12:08:22;5.03;;;3.60;;
6434;SDS011;3250;42.694;23.278;2023-09-18T12:10:51;6.88;;;3.60;;
6434;SDS011;3250;42.694;23.278;2023-09-18T12:13:17;4.60;;;3.70;;
6434;SDS011;3250;42.694;23.278;2023-09-18T12:15:43;8.05;;;3.78;;
6434;SDS011;3250;42.694;23.278;2023-09-18T12:18:09;5.05;;;4.03;;
6434;SDS011;3250;42.694;23.278;2023-09-18T12:20:37;6.15;;;3.70;;
6434;SDS011;3250;42.694;23.278;2023-09-18T12:23:03;5.32;;;3.55;;
6434;SDS011;3250;42.694;23.278;2023-09-18T12:25:28;10.48;;;3.60;;
6434;SDS011;3250;42.694;23.278;2023-09-18T12:27:54;6.22;;;3.92;;
6434;SDS011;3250;42.694;23.278;2023-09-18T12:30:21;5.25;;;3.60;;
6434;SDS011;3250;42.694;23.278;2023-09-18T12:32:48;7.43;;;3.88;;
6434;SDS011;3250;42.694;23.278;2023-09-18T12:35:14;4.63;;;3.55;;
6434;SDS011;3250;42.694;23.278;2023-09-18T12:37:40;9.57;;;4.15;;
6434;SDS011;3250;42.694;23.278;2023-09-18T12:40:07;6.22;;;4.05;;
6434;SDS011;3250;42.694;23.278;2023-09-18T12:42:45;8.27;;;3.88;;
6434;SDS011;3250;42.694;23.278;2023-09-18T12:45:11;5.95;;;4.95;;
6434;SDS011;3250;42.694;23.278;2023-09-18T12:47:37;7.97;;;3.92;;
6434;SDS011;3250;42.694;23.278;2023-09-18T12:50:04;9.02;;;3.97;;
6434;SDS011;3250;42.694;23.278;2023-09-18T12:52:31;6.63;;;3.58;;
6434;SDS011;3250;42.694;23.278;2023-09-18T12:54:58;5.45;;;3.92;;
6434;SDS011;3250;42.694;23.278;2023-09-18T12:57:24;6.22;;;4.05;;
6434;SDS011;3250;42.694;23.278;2023-09-18T12:59:50;6.35;;;4.18;;
6434;SDS011;3250;42.694;23.278;2023-09-18T13:02:17;7.00;;;3.58;;
6434;SDS011;3250;42.694;23.278;2023-09-18T13:04:53;7.78;;;3.97;;
6434;SDS011;3250;42.694;23.278;2023-09-18T13:07:19;6.57;;;3.75;;
6434;SDS011;3250;42.694;23.278;2023-09-18T13:12:47;7.63;;;4.38;;
6434;SDS011;3250;42.694;23.278;2023-09-18T13:15:25;6.60;;;3.90;;
6434;SDS011;3250;42.694;23.278;2023-09-18T13:17:54;5.88;;;3.90;;
6434;SDS011;3250;42.694;23.278;2023-09-18T13:20:22;6.55;;;4.15;;
6434;SDS011;3250;42.694;23.278;2023-09-18T13:22:53;7.45;;;4.13;;
6434;SDS011;3250;42.694;23.278;2023-09-18T13:25:23;5.43;;;4.63;;
6434;SDS011;3250;42.694;23.278;2023-09-18T13:27:50;5.07;;;3.10;;
6434;SDS011;3250;42.694;23.278;2023-09-18T13:30:17;8.10;;;3.65;;
6434;SDS011;3250;42.694;23.278;2023-09-18T13:32:45;4.32;;;3.53;;
6434;SDS011;3250;42.694;23.278;2023-09-18T13:35:13;6.88;;;3.67;;
6434;SDS011;3250;42.694;23.278;2023-09-18T13:37:39;7.80;;;3.92;;
6434;SDS011;3250;42.694;23.278;2023-09-18T13:40:05;3.83;;;3.42;;
6434;SDS011;3250;42.694;23.278;2023-09-18T13:42:34;6.20;;;4.25;;
6434;SDS011;3250;42.694;23.278;2023-09-18T13:45:00;7.65;;;3.90;;
6434;SDS011;3250;42.694;23.278;2023-09-18T13:47:29;4.72;;;3.50;;
6434;SDS011;3250;42.694;23.278;2023-09-18T13:49:54;7.13;;;3.97;;
6434;SDS011;3250;42.694;23.278;2023-09-18T13:52:24;5.40;;;4.15;;
6434;SDS011;3250;42.694;23.278;2023-09-18T13:55:01;8.80;;;4.05;;
6434;SDS011;3250;42.694;23.278;2023-09-18T13:57:30;5.57;;;3.80;;
6434;SDS011;3250;42.694;23.278;2023-09-18T13:59:59;4.93;;;3.75;;
6434;SDS011;3250;42.694;23.278;2023-09-18T14:02:25;5.85;;;3.95;;
6434;SDS011;3250;42.694;23.278;2023-09-18T14:04:52;8.10;;;3.85;;
6434;SDS011;3250;42.694;23.278;2023-09-18T14:07:20;10.27;;;3.60;;
6434;SDS011;3250;42.694;23.278;2023-09-18T14:09:47;5.80;;;3.55;;
6434;SDS011;3250;42.694;23.278;2023-09-18T14:12:12;8.93;;;3.65;;
6434;SDS011;3250;42.694;23.278;2023-09-18T14:14:37;4.82;;;3.60;;
6434;SDS011;3250;42.694;23.278;2023-09-18T14:17:05;6.00;;;3.90;;
6434;SDS011;3250;42.694;23.278;2023-09-18T14:19:31;6.13;;;3.30;;
6434;SDS011;3250;42.694;23.278;2023-09-18T14:21:56;8.23;;;3.95;;
6434;SDS011;3250;42.694;23.278;2023-09-18T14:24:22;7.70;;;3.65;;
6434;SDS011;3250;42.694;23.278;2023-09-18T14:26:51;8.10;;;3.78;;
6434;SDS011;3250;42.694;23.278;2023-09-18T14:29:17;4.18;;;3.50;;
6434;SDS011;3250;42.694;23.278;2023-09-18T14:31:42;4.97;;;3.90;;
6434;SDS011;3250;42.694;23.278;2023-09-18T14:34:09;3.58;;;3.25;;
6434;SDS011;3250;42.694;23.278;2023-09-18T14:36:34;6.40;;;3.65;;
6434;SDS011;3250;42.694;23.278;2023-09-18T14:39:01;9.52;;;3.97;;
6434;SDS011;3250;42.694;23.278;2023-09-18T14:41:27;4.97;;;3.75;;
6434;SDS011;3250;42.694;23.278;2023-09-18T14:43:52;6.88;;;3.67;;
6434;SDS011;3250;42.694;23.278;2023-09-18T14:46:18;5.93;;;3.50;;
6434;SDS011;3250;42.694;23.278;2023-09-18T14:48:44;6.20;;;4.18;;
6434;SDS011;3250;42.694;23.278;2023-09-18T14:51:10;6.85;;;3.90;;
6434;SDS011;3250;42.694;23.278;2023-09-18T14:53:36;6.90;;;3.63;;
6434;SDS011;3250;42.694;23.278;2023-09-18T14:56:02;9.98;;;3.97;;
6434;SDS011;3250;42.694;23.278;2023-09-18T14:58:29;6.22;;;3.38;;
6434;SDS011;3250;42.694;23.278;2023-09-18T15:00:55;4.63;;;4.07;;